createdAt,value
2019-01-09T00:00:37.166Z,100843.48
2019-01-09T00:03:05.848Z,100840.80
2019-01-09T00:05:34.603Z,100842.39
2019-01-09T00:08:03.125Z,100851.75
2019-01-09T00:10:31.949Z,100853.02
2019-01-09T00:13:00.728Z,100869.96
2019-01-09T00:15:29.519Z,100840.95
2019-01-09T00:17:58.255Z,100845.81
2019-01-09T00:20:27.027Z,100839.30
2019-01-09T00:22:55.912Z,100836.19
2019-01-09T00:25:24.744Z,100833.26
2019-01-09T00:27:53.305Z,100845.23
2019-01-09T00:30:22.208Z,100834.41
2019-01-09T00:32:50.909Z,100826.41
2019-01-09T00:35:19.674Z,100819.63
2019-01-09T00:37:48.248Z,100822.16
2019-01-09T00:40:17.051Z,100830.55
2019-01-09T00:42:45.790Z,100832.22
2019-01-09T00:45:14.344Z,100833.03
2019-01-09T00:47:43.159Z,100839.36
2019-01-09T00:50:12.711Z,100836.83
2019-01-09T00:52:41.594Z,100830.50
2019-01-09T00:55:11.140Z,100830.55
2019-01-09T00:57:39.883Z,100831.42
2019-01-09T01:00:17.379Z,100831.53
2019-01-09T01:03:19.528Z,100834.84
2019-01-09T01:05:59.872Z,100839.28
2019-01-09T01:08:37.204Z,100836.40
2019-01-09T01:11:26.622Z,100841.32
2019-01-09T01:14:26.854Z,100838.39
2019-01-09T01:17:22.444Z,100851.41
2019-01-09T01:20:16.904Z,100838.79
2019-01-09T01:22:54.421Z,100839.59
2019-01-09T01:25:34.996Z,100838.22
2019-01-09T01:28:06.514Z,100844.86
2019-01-09T01:31:00.642Z,100851.25
2019-01-09T01:33:32.147Z,100840.75
2019-01-09T01:36:21.796Z,100844.45
2019-01-09T01:39:08.786Z,100841.06
2019-01-09T01:41:46.268Z,100849.67
2019-01-09T01:44:39.301Z,100845.47
2019-01-09T01:47:29.455Z,100845.53
2019-01-09T01:50:19.484Z,100846.09
2019-01-09T01:52:56.254Z,100823.65
2019-01-09T01:55:36.707Z,100829.52
2019-01-09T01:58:30.319Z,100828.20
2019-01-09T02:01:13.924Z,100835.74
2019-01-09T02:04:03.263Z,100833.20
2019-01-09T02:07:01.802Z,100837.32
2019-01-09T02:09:54.580Z,100845.93
2019-01-09T02:12:28.916Z,100841.61
2019-01-09T02:15:12.909Z,100844.86
2019-01-09T02:17:47.210Z,100846.59
2019-01-09T02:20:24.262Z,100858.85
2019-01-09T02:23:11.177Z,100851.66
2019-01-09T02:25:51.722Z,100850.68
2019-01-09T02:28:29.110Z,100846.42
2019-01-09T02:31:17.096Z,100854.83
2019-01-09T02:33:45.771Z,100863.34
2019-01-09T02:36:14.161Z,100855.86
2019-01-09T02:38:42.844Z,100853.21
2019-01-09T02:41:11.502Z,100867.95
2019-01-09T02:43:40.209Z,100860.69
2019-01-09T02:46:08.945Z,100867.83
2019-01-09T02:48:37.667Z,100860.58
2019-01-09T02:51:06.466Z,100890.86
2019-01-09T02:53:35.207Z,100881.65
2019-01-09T02:56:03.998Z,100881.66
2019-01-09T02:58:32.737Z,100887.41
2019-01-09T03:01:01.222Z,100882.34
2019-01-09T03:03:29.942Z,100894.47
2019-01-09T03:05:58.769Z,100888.55
2019-01-09T03:08:27.698Z,100889.81
2019-01-09T03:10:56.482Z,100887.41
2019-01-09T03:13:25.165Z,100880.09
2019-01-09T03:15:53.740Z,100883.48
2019-01-09T03:18:22.518Z,100884.81
2019-01-09T03:20:51.302Z,100883.55
2019-01-09T03:23:19.714Z,100882.28
2019-01-09T03:25:48.143Z,100886.14
2019-01-09T03:28:16.917Z,100878.54
2019-01-09T03:30:45.667Z,100883.14
2019-01-09T03:33:14.186Z,100873.48
2019-01-09T03:35:42.877Z,100872.22
2019-01-09T03:38:11.355Z,100872.09
2019-01-09T03:40:40.048Z,100869.56
2019-01-09T03:43:08.850Z,100869.62
2019-01-09T03:45:37.582Z,100879.80
2019-01-09T03:48:06.362Z,100881.48
2019-01-09T03:50:35.086Z,100861.63
2019-01-09T03:53:03.858Z,100872.16
2019-01-09T03:55:32.266Z,100871.94
2019-01-09T03:58:00.705Z,100864.97
2019-01-09T04:00:29.770Z,100863.86
2019-01-09T04:02:58.452Z,100864.97
2019-01-09T04:05:27.161Z,100860.25
2019-01-09T04:07:55.929Z,100862.77
2019-01-09T04:10:24.393Z,100866.17
2019-01-09T04:12:52.899Z,100857.72
2019-01-09T04:15:22.192Z,100850.92
2019-01-09T04:17:50.926Z,100855.59
2019-01-09T04:20:19.345Z,100857.66
2019-01-09T04:22:48.141Z,100862.38
2019-01-09T04:25:18.416Z,100864.97
2019-01-09T04:27:47.099Z,100859.91
2019-01-09T04:30:15.798Z,100868.86
2019-01-09T04:32:44.498Z,100866.73
2019-01-09T04:35:13.197Z,100861.17
2019-01-09T04:37:41.911Z,100865.46
2019-01-09T04:40:10.679Z,100882.68
2019-01-09T04:42:39.087Z,100888.02
2019-01-09T04:45:08.316Z,100881.04
2019-01-09T04:47:36.799Z,100861.60
2019-01-09T04:50:06.357Z,100862.87
2019-01-09T04:52:35.009Z,100863.80
2019-01-09T04:55:03.738Z,100876.91
2019-01-09T04:57:32.459Z,100887.48
2019-01-09T05:00:01.204Z,100886.22
2019-01-09T05:02:29.961Z,100880.77
2019-01-09T05:04:58.422Z,100874.84
2019-01-09T05:07:26.864Z,100879.44
2019-01-09T05:09:55.526Z,100875.36
2019-01-09T05:12:24.220Z,100875.77
2019-01-09T05:14:52.889Z,100860.19
2019-01-09T05:17:21.603Z,100876.29
2019-01-09T05:19:50.438Z,100883.94
2019-01-09T05:22:18.796Z,100874.50
2019-01-09T05:24:48.858Z,100877.50
2019-01-09T05:27:17.650Z,100874.84
2019-01-09T05:29:46.427Z,100872.13
2019-01-09T05:32:15.155Z,100883.91
2019-01-09T05:34:43.590Z,100876.25
2019-01-09T05:37:12.308Z,100871.20
2019-01-09T05:39:41.075Z,100873.73
2019-01-09T05:42:09.826Z,100863.39
2019-01-09T05:44:38.596Z,100852.00
2019-01-09T05:47:07.368Z,100863.27
2019-01-09T05:49:36.083Z,100857.73
2019-01-09T05:52:04.811Z,100848.77
2019-01-09T05:54:33.493Z,100856.34
2019-01-09T05:57:01.939Z,100852.16
2019-01-09T05:59:30.728Z,100857.15
2019-01-09T06:01:59.417Z,100862.45
2019-01-09T06:04:28.231Z,100859.47
2019-01-09T06:06:56.905Z,100859.87
2019-01-09T06:09:25.579Z,100863.14
2019-01-09T06:11:54.115Z,100864.73
2019-01-09T06:14:22.710Z,100867.73
2019-01-09T06:16:52.205Z,100867.60
2019-01-09T06:19:20.947Z,100873.12
2019-01-09T06:21:49.600Z,100873.47
2019-01-09T06:24:19.159Z,100887.31
2019-01-09T06:26:47.896Z,100877.93
2019-01-09T06:29:16.657Z,100882.49
2019-01-09T06:31:45.189Z,100881.56
2019-01-09T06:34:13.941Z,100886.16
2019-01-09T06:36:42.886Z,100901.66
2019-01-09T06:39:13.993Z,100902.33
2019-01-09T06:41:42.663Z,100903.66
2019-01-09T06:44:11.460Z,100907.98
2019-01-09T06:46:40.189Z,100902.00
2019-01-09T06:49:08.928Z,100901.07
2019-01-09T06:51:37.691Z,100908.53
2019-01-09T06:54:06.422Z,100912.66
2019-01-09T06:56:35.102Z,100905.41
2019-01-09T06:59:03.854Z,100905.41
2019-01-09T07:01:32.637Z,100911.78
2019-01-09T07:04:01.310Z,100909.66
2019-01-09T07:06:29.993Z,100912.09
2019-01-09T07:08:58.793Z,100916.78
2019-01-09T07:11:27.605Z,100930.19
2019-01-09T07:13:56.368Z,100925.80
2019-01-09T07:16:24.874Z,100930.92
2019-01-09T07:18:53.555Z,100939.70
2019-01-09T07:21:22.245Z,100937.50
2019-01-09T07:23:50.995Z,100942.16
2019-01-09T07:26:19.678Z,100949.75
2019-01-09T07:28:48.495Z,100950.02
2019-01-09T07:31:17.203Z,100955.80
2019-01-09T07:33:46.065Z,100959.98
2019-01-09T07:36:14.747Z,100958.26
2019-01-09T07:38:43.565Z,100959.66
2019-01-09T07:41:12.270Z,100959.39
2019-01-09T07:43:40.683Z,100964.12
2019-01-09T07:46:09.413Z,100970.17
2019-01-09T07:48:38.198Z,100966.45
2019-01-09T07:51:06.874Z,100968.61
2019-01-09T07:53:35.399Z,100963.29
2019-01-09T07:56:04.123Z,100965.88
2019-01-09T07:58:32.556Z,100954.97
2019-01-09T08:01:01.302Z,100965.22
2019-01-09T08:03:30.013Z,100965.22
2019-01-09T08:05:58.471Z,100963.02
2019-01-09T08:08:27.204Z,100960.83
2019-01-09T08:10:55.706Z,100962.48
2019-01-09T08:13:24.352Z,100970.48
2019-01-09T08:15:53.052Z,100972.67
2019-01-09T08:18:21.887Z,100972.14
2019-01-09T08:20:50.289Z,100965.28
2019-01-09T08:23:19.002Z,100971.50
2019-01-09T08:25:47.675Z,100976.97
2019-01-09T08:28:16.374Z,100978.23
2019-01-09T08:30:45.745Z,100984.25
2019-01-09T08:33:14.426Z,100999.89
2019-01-09T08:35:43.177Z,101015.80
2019-01-09T08:38:11.866Z,101015.86
2019-01-09T08:40:40.853Z,101013.08
2019-01-09T08:43:09.619Z,101020.33
2019-01-09T08:45:38.028Z,101016.53
2019-01-09T08:48:06.440Z,101021.69
2019-01-09T08:50:35.187Z,101027.91
2019-01-09T08:53:04.103Z,101034.50
2019-01-09T08:55:32.804Z,101026.84
2019-01-09T08:58:01.559Z,101036.16
2019-01-09T09:00:30.010Z,101037.89
2019-01-09T09:02:58.816Z,101040.73
2019-01-09T09:05:27.498Z,101047.66
2019-01-09T09:08:01.073Z,101048.72
2019-01-09T09:10:29.908Z,101041.59
2019-01-09T09:12:58.433Z,101056.05
2019-01-09T09:15:26.942Z,101053.28
2019-01-09T09:17:55.446Z,101053.02
2019-01-09T09:20:24.202Z,101047.56
2019-01-09T09:22:52.896Z,101055.42
2019-01-09T09:25:21.414Z,101071.20
2019-01-09T09:27:49.806Z,101060.78
2019-01-09T09:30:18.938Z,101060.78
2019-01-09T09:32:47.676Z,101065.58
2019-01-09T09:35:16.139Z,101062.17
2019-01-09T09:37:44.547Z,101067.03
2019-01-09T09:40:16.772Z,101067.63
2019-01-09T09:42:45.626Z,101074.03
2019-01-09T09:45:14.464Z,101080.45
2019-01-09T09:47:43.052Z,101083.25
2019-01-09T09:50:14.705Z,101078.78
2019-01-09T09:52:43.417Z,101085.70
2019-01-09T09:55:12.944Z,101072.52
2019-01-09T09:57:41.658Z,101076.31
2019-01-09T10:00:13.447Z,101070.45
2019-01-09T10:02:42.195Z,101076.78
2019-01-09T10:05:11.047Z,101074.61
2019-01-09T10:07:39.860Z,101077.60
2019-01-09T10:10:11.450Z,101068.41
2019-01-09T10:12:39.890Z,101066.73
2019-01-09T10:15:11.784Z,101075.80
2019-01-09T10:17:40.631Z,101066.59
2019-01-09T10:20:15.309Z,101072.59
2019-01-09T10:22:45.857Z,101071.88
2019-01-09T10:25:14.347Z,101081.34
2019-01-09T10:27:43.051Z,101076.00
2019-01-09T10:30:20.034Z,101075.06
2019-01-09T10:32:49.202Z,101075.00
2019-01-09T10:35:17.693Z,101073.27
2019-01-09T10:37:47.000Z,101077.34
2019-01-09T10:40:18.344Z,101077.81
2019-01-09T10:42:47.191Z,101082.19
2019-01-09T10:45:18.770Z,101091.79
2019-01-09T10:47:47.277Z,101082.13
2019-01-09T10:50:17.139Z,101074.66
2019-01-09T10:52:45.659Z,101080.52
2019-01-09T10:55:16.782Z,101077.33
2019-01-09T10:57:45.505Z,101092.88
2019-01-09T11:00:20.262Z,101079.87
2019-01-09T11:02:49.184Z,101072.39
2019-01-09T11:05:18.185Z,101070.05
2019-01-09T11:07:46.932Z,101073.47
2019-01-09T11:10:18.079Z,101069.09
2019-01-09T11:12:46.655Z,101076.34
2019-01-09T11:15:15.565Z,101071.80
2019-01-09T11:17:44.036Z,101064.69
2019-01-09T11:20:20.863Z,101072.88
2019-01-09T11:22:49.677Z,101064.01
2019-01-09T11:25:20.639Z,101066.95
2019-01-09T11:27:49.506Z,101058.13
2019-01-09T11:30:20.755Z,101055.95
2019-01-09T11:32:49.245Z,101052.42
2019-01-09T11:35:20.275Z,101058.64
2019-01-09T11:37:49.024Z,101057.89
2019-01-09T11:40:19.412Z,101057.78
2019-01-09T11:42:48.149Z,101064.89
2019-01-09T11:45:19.039Z,101064.64
2019-01-09T11:47:48.422Z,101062.56
2019-01-09T11:50:18.058Z,101048.16
2019-01-09T11:52:46.835Z,101049.77
2019-01-09T11:55:15.912Z,101057.10
2019-01-09T11:57:44.787Z,101057.10
2019-01-09T12:00:21.867Z,101047.95
2019-01-09T12:02:50.736Z,101040.63
2019-01-09T12:05:19.468Z,101036.08
2019-01-09T12:07:48.339Z,101044.89
2019-01-09T12:10:19.845Z,101052.88
2019-01-09T12:12:48.515Z,101053.34
2019-01-09T12:15:18.566Z,101052.88
2019-01-09T12:17:47.444Z,101041.19
2019-01-09T12:20:17.812Z,101053.41
2019-01-09T12:22:47.049Z,101048.85
2019-01-09T12:25:15.911Z,101053.34
2019-01-09T12:27:44.626Z,101056.63
2019-01-09T12:30:25.047Z,101041.24
2019-01-09T12:32:53.582Z,101039.44
2019-01-09T12:35:22.371Z,101043.93
2019-01-09T12:37:51.241Z,101046.47
2019-01-09T12:40:19.894Z,101032.34
2019-01-09T12:42:48.584Z,101049.17
2019-01-09T12:45:18.038Z,101055.05
2019-01-09T12:47:46.787Z,101039.66
2019-01-09T12:50:20.821Z,101044.50
2019-01-09T12:52:49.228Z,101049.89
2019-01-09T12:55:17.721Z,101045.10
2019-01-09T12:57:46.125Z,101042.47
2019-01-09T13:00:18.131Z,101055.25
2019-01-09T13:02:46.882Z,101046.67
2019-01-09T13:05:15.924Z,101048.22
2019-01-09T13:07:44.740Z,101049.55
2019-01-09T13:10:13.537Z,101054.56
2019-01-09T13:12:42.454Z,101058.66
2019-01-09T13:15:11.513Z,101066.55
2019-01-09T13:17:40.261Z,101067.36
2019-01-09T13:20:14.194Z,101067.70
2019-01-09T13:22:42.658Z,101074.33
2019-01-09T13:25:13.680Z,101064.59
2019-01-09T13:27:42.432Z,101070.64
2019-01-09T13:30:16.833Z,101064.72
2019-01-09T13:32:45.654Z,101084.44
2019-01-09T13:35:14.417Z,101083.69
2019-01-09T13:37:43.293Z,101077.02
2019-01-09T13:40:14.742Z,101087.34
2019-01-09T13:42:43.875Z,101079.33
2019-01-09T13:45:15.164Z,101087.70
2019-01-09T13:47:43.654Z,101093.57
2019-01-09T13:50:14.967Z,101091.73
2019-01-09T13:52:43.457Z,101098.08
2019-01-09T13:55:14.327Z,101098.83
2019-01-09T13:57:42.780Z,101088.97
2019-01-09T14:00:16.955Z,101101.58
2019-01-09T14:02:45.502Z,101102.03
2019-01-09T14:05:15.022Z,101112.42
2019-01-09T14:07:43.864Z,101098.08
2019-01-09T14:10:15.118Z,101099.28
2019-01-09T14:12:43.861Z,101103.55
2019-01-09T14:15:15.743Z,101102.63
2019-01-09T14:17:44.508Z,101114.38
2019-01-09T14:20:13.756Z,101124.00
2019-01-09T14:22:42.698Z,101124.98
2019-01-09T14:25:13.357Z,101121.87
2019-01-09T14:27:42.096Z,101120.83
2019-01-09T14:30:19.331Z,101119.90
2019-01-09T14:32:48.168Z,101140.95
2019-01-09T14:35:17.062Z,101131.48
2019-01-09T14:37:46.683Z,101122.73
2019-01-09T14:40:20.398Z,101142.63
2019-01-09T14:42:49.242Z,101132.82
2019-01-09T14:45:18.772Z,101132.64
2019-01-09T14:47:47.299Z,101148.19
2019-01-09T14:50:21.109Z,101147.66
2019-01-09T14:52:49.871Z,101138.66
2019-01-09T14:55:18.678Z,101149.45
2019-01-09T14:57:47.928Z,101149.79
2019-01-09T15:00:19.311Z,101157.27
2019-01-09T15:02:48.050Z,101164.66
2019-01-09T15:05:16.939Z,101169.66
2019-01-09T15:07:45.697Z,101160.94
2019-01-09T15:10:28.066Z,101160.28
2019-01-09T15:12:57.598Z,101175.27
2019-01-09T15:15:26.479Z,101169.27
2019-01-09T15:17:55.009Z,101177.27
2019-01-09T15:20:23.474Z,101173.08
2019-01-09T15:22:52.195Z,101172.72
2019-01-09T15:25:21.000Z,101191.59
2019-01-09T15:27:49.591Z,101203.48
2019-01-09T15:30:25.507Z,101191.52
2019-01-09T15:32:54.309Z,101183.11
2019-01-09T15:35:23.244Z,101183.59
2019-01-09T15:37:51.755Z,101199.98
2019-01-09T15:40:23.155Z,101185.92
2019-01-09T15:42:52.440Z,101192.13
2019-01-09T15:45:21.225Z,101193.69
2019-01-09T15:47:49.656Z,101196.29
2019-01-09T15:50:20.681Z,101194.66
2019-01-09T15:52:49.416Z,101201.75
2019-01-09T15:55:18.293Z,101199.88
2019-01-09T15:57:49.142Z,101204.34
2019-01-09T16:00:20.689Z,101210.08
2019-01-09T16:02:49.485Z,101203.88
2019-01-09T16:05:18.039Z,101210.61
2019-01-09T16:07:46.796Z,101212.08
2019-01-09T16:10:20.460Z,101221.89
2019-01-09T16:12:48.881Z,101223.96
2019-01-09T16:15:19.521Z,101226.68
2019-01-09T16:17:48.283Z,101226.30
2019-01-09T16:20:19.239Z,101229.94
2019-01-09T16:22:48.041Z,101219.28
2019-01-09T16:25:16.871Z,101224.02
2019-01-09T16:27:45.591Z,101230.56
2019-01-09T16:30:34.262Z,101230.76
2019-01-09T16:33:03.259Z,101241.89
2019-01-09T16:35:34.578Z,101236.69
2019-01-09T16:38:03.100Z,101238.34
2019-01-09T16:40:31.841Z,101244.53
2019-01-09T16:43:00.606Z,101236.87
2019-01-09T16:45:29.437Z,101240.39
2019-01-09T16:47:58.768Z,101245.34
2019-01-09T16:50:27.688Z,101254.45
2019-01-09T16:52:56.435Z,101248.33
2019-01-09T16:55:25.608Z,101267.17
2019-01-09T16:57:54.178Z,101254.66
2019-01-09T17:00:28.453Z,101257.98
2019-01-09T17:02:58.574Z,101257.52
2019-01-09T17:05:27.148Z,101264.78
2019-01-09T17:07:55.939Z,101260.98
2019-01-09T17:10:32.336Z,101272.23
2019-01-09T17:12:55.518Z,101274.92
2019-01-09T17:15:24.228Z,101270.51
2019-01-09T17:17:53.012Z,101276.83
2019-01-09T17:20:29.279Z,101286.48
2019-01-09T17:22:58.079Z,101294.69
2019-01-09T17:25:26.616Z,101281.56
2019-01-09T17:27:55.443Z,101282.69
2019-01-09T17:30:29.442Z,101065.68
2019-01-09T17:32:58.316Z,101282.00
2019-01-09T17:35:27.057Z,101284.45
2019-01-09T17:37:55.988Z,101273.62
2019-01-09T17:40:25.648Z,101292.84
2019-01-09T17:42:54.595Z,101299.72
2019-01-09T17:45:24.246Z,101299.50
2019-01-09T17:47:52.997Z,101304.70
2019-01-09T17:50:25.011Z,101306.76
2019-01-09T17:52:54.777Z,101319.41
2019-01-09T17:55:23.677Z,101313.95
2019-01-09T17:57:52.277Z,101322.73
2019-01-09T18:00:29.162Z,101325.11
2019-01-09T18:02:57.909Z,101325.58
2019-01-09T18:05:26.698Z,101327.96
2019-01-09T18:07:55.484Z,101327.34
2019-01-09T18:10:26.996Z,101327.27
2019-01-09T18:12:55.754Z,101333.73
2019-01-09T18:15:25.300Z,101340.30
2019-01-09T18:17:53.814Z,101336.75
2019-01-09T18:20:23.650Z,101341.17
2019-01-09T18:22:52.638Z,101354.98
2019-01-09T18:25:24.528Z,101352.05
2019-01-09T18:27:53.900Z,101357.90
2019-01-09T18:30:27.190Z,101354.58
2019-01-09T18:32:59.162Z,101355.64
2019-01-09T18:35:55.200Z,101364.02
2019-01-09T18:38:28.933Z,101365.59
2019-01-09T18:41:06.248Z,101373.19
2019-01-09T18:43:53.116Z,101377.92
2019-01-09T18:46:40.205Z,101378.24
2019-01-09T18:49:14.884Z,101375.20
2019-01-09T18:52:08.674Z,101389.11
2019-01-09T18:54:37.473Z,101383.38
2019-01-09T18:57:06.111Z,101391.64
2019-01-09T18:59:34.529Z,101395.36
2019-01-09T19:02:03.442Z,101404.68
2019-01-09T19:04:31.849Z,101405.08
2019-01-09T19:07:00.439Z,101401.00
2019-01-09T19:09:29.221Z,101408.87
2019-01-09T19:11:57.984Z,101404.53
2019-01-09T19:14:26.707Z,101409.98
2019-01-09T19:16:55.588Z,101413.37
2019-01-09T19:19:24.137Z,101416.37
2019-01-09T19:21:55.917Z,101407.13
2019-01-09T19:24:24.676Z,101410.53
2019-01-09T19:26:53.511Z,101416.45
2019-01-09T19:29:22.295Z,101422.38
2019-01-09T19:31:51.442Z,101421.91
2019-01-09T19:34:20.151Z,101416.45
2019-01-09T19:36:49.021Z,101421.44
2019-01-09T19:39:17.805Z,101425.15
2019-01-09T19:41:46.297Z,101424.36
2019-01-09T19:44:15.067Z,101426.73
2019-01-09T19:46:43.529Z,101427.13
2019-01-09T19:49:12.291Z,101431.16
2019-01-09T19:51:41.133Z,101427.59
2019-01-09T19:54:09.801Z,101433.68
2019-01-09T19:56:38.218Z,101427.67
2019-01-09T19:59:07.841Z,101435.38
2019-01-09T20:01:36.712Z,101433.17
2019-01-09T20:04:05.631Z,101439.80
2019-01-09T20:06:34.193Z,101444.70
2019-01-09T20:09:02.994Z,101443.44
2019-01-09T20:11:31.723Z,101441.61
2019-01-09T20:14:00.562Z,101449.44
2019-01-09T20:16:29.112Z,101450.11
2019-01-09T20:18:57.889Z,101451.60
2019-01-09T20:21:26.547Z,101455.70
2019-01-09T20:23:55.138Z,101279.53
2019-01-09T20:26:23.941Z,101459.02
2019-01-09T20:28:52.614Z,101464.86
2019-01-09T20:31:21.419Z,101457.28
2019-01-09T20:33:50.677Z,101459.88
2019-01-09T20:36:19.617Z,101467.25
2019-01-09T20:38:48.329Z,101466.77
2019-01-09T20:41:17.619Z,101475.84
2019-01-09T20:43:46.051Z,101476.72
2019-01-09T20:46:14.813Z,101488.95
2019-01-09T20:48:43.576Z,101490.53
2019-01-09T20:51:12.443Z,101494.71
2019-01-09T20:53:41.356Z,101500.16
2019-01-09T20:56:11.155Z,101500.86
2019-01-09T20:58:40.190Z,101504.87
2019-01-09T21:01:09.129Z,101506.53
2019-01-09T21:03:37.976Z,101504.79
2019-01-09T21:06:07.064Z,101511.98
2019-01-09T21:08:35.857Z,101514.98
2019-01-09T21:11:04.770Z,101508.19
2019-01-09T21:13:33.457Z,101516.24
2019-01-09T21:16:02.164Z,101511.50
2019-01-09T21:18:30.650Z,101518.48
2019-01-09T21:20:59.319Z,101514.02
2019-01-09T21:23:28.507Z,101520.61
2019-01-09T21:25:57.390Z,101517.92
2019-01-09T21:28:25.999Z,101511.83
2019-01-09T21:30:54.515Z,101517.58
2019-01-09T21:33:23.071Z,101519.15
2019-01-09T21:35:52.507Z,101523.33
2019-01-09T21:38:20.983Z,101524.28
2019-01-09T21:40:49.502Z,101523.72
2019-01-09T21:43:17.986Z,101528.59
2019-01-09T21:45:46.463Z,101530.13
2019-01-09T21:48:15.249Z,101533.75
2019-01-09T21:50:43.929Z,101530.27
2019-01-09T21:53:12.908Z,101537.19
2019-01-09T21:55:41.677Z,101539.06
2019-01-09T21:58:10.398Z,101535.84
2019-01-09T22:00:39.369Z,101544.03
2019-01-09T22:03:08.156Z,101551.42
2019-01-09T22:05:37.334Z,101562.22
2019-01-09T22:08:06.670Z,101570.27
2019-01-09T22:10:35.565Z,101568.70
2019-01-09T22:13:04.889Z,101576.76
2019-01-09T22:15:33.630Z,101583.64
2019-01-09T22:18:02.102Z,101580.63
2019-01-09T22:20:30.881Z,101575.11
2019-01-09T22:22:59.740Z,101574.23
2019-01-09T22:25:28.379Z,101581.41
2019-01-09T22:27:58.367Z,101580.06
2019-01-09T22:30:28.383Z,101587.81
2019-01-09T22:32:57.512Z,101585.59
2019-01-09T22:35:26.376Z,101586.55
2019-01-09T22:37:55.042Z,101591.21
2019-01-09T22:40:24.346Z,101588.20
2019-01-09T22:42:53.184Z,101589.86
2019-01-09T22:45:22.121Z,101598.30
2019-01-09T22:47:50.627Z,101604.44
2019-01-09T22:50:23.410Z,101606.48
2019-01-09T22:52:52.187Z,101611.83
2019-01-09T22:55:23.607Z,101598.82
2019-01-09T22:57:52.429Z,101595.24
2019-01-09T23:00:43.174Z,101596.11
2019-01-09T23:03:13.835Z,101599.60
2019-01-09T23:05:44.560Z,101601.64
2019-01-09T23:08:13.393Z,101607.56
2019-01-09T23:10:41.860Z,101604.64
2019-01-09T23:13:10.447Z,101606.20
2019-01-09T23:15:39.295Z,101600.89
2019-01-09T23:18:08.399Z,101602.06
2019-01-09T23:20:40.189Z,101604.59
2019-01-09T23:23:09.619Z,101602.75
2019-01-09T23:25:38.221Z,101606.63
2019-01-09T23:28:07.327Z,101604.58
2019-01-09T23:30:35.794Z,101607.30
2019-01-09T23:33:05.016Z,101611.58
2019-01-09T23:35:33.847Z,101606.34
2019-01-09T23:38:04.192Z,101609.55
2019-01-09T23:40:33.112Z,101618.59
2019-01-09T23:43:04.263Z,101621.80
2019-01-09T23:45:32.777Z,101617.81
2019-01-09T23:48:01.518Z,101633.91
2019-01-09T23:50:30.212Z,101628.09
2019-01-09T23:52:58.894Z,101632.08
2019-01-09T23:55:27.374Z,101634.51
2019-01-09T23:57:55.783Z,101630.33
